createdAt,value
2022-10-25T00:01:51.085Z,12.08
2022-10-25T00:04:53.728Z,12.06
2022-10-25T00:07:56.297Z,12.14
2022-10-25T00:11:00.270Z,12.14
2022-10-25T00:14:05.732Z,12.13
2022-10-25T00:17:08.483Z,12.25
2022-10-25T00:20:12.661Z,12.31
2022-10-25T00:23:15.913Z,12.27
2022-10-25T00:26:20.339Z,12.28
2022-10-25T00:32:26.456Z,12.19
2022-10-25T00:35:29.148Z,12.31
2022-10-25T00:38:31.944Z,12.25
2022-10-25T00:41:36.006Z,12.19
2022-10-25T00:44:54.005Z,12.19
2022-10-25T00:47:59.303Z,12.27
2022-10-25T00:51:02.572Z,12.29
2022-10-25T00:54:05.750Z,12.28
2022-10-25T00:57:13.796Z,12.22
2022-10-25T01:00:16.830Z,12.42
2022-10-25T01:03:22.222Z,12.63
2022-10-25T01:06:29.493Z,12.75
2022-10-25T01:09:33.567Z,12.80
2022-10-25T01:12:37.520Z,12.76
2022-10-25T01:15:48.018Z,12.81
2022-10-25T01:18:57.105Z,12.77
2022-10-25T01:22:03.392Z,12.80
2022-10-25T01:25:29.006Z,12.89
2022-10-25T01:28:43.388Z,13.08
2022-10-25T01:31:50.017Z,12.96
2022-10-25T01:34:58.198Z,12.94
2022-10-25T01:38:17.115Z,12.89
2022-10-25T01:41:26.132Z,12.78
2022-10-25T01:47:45.318Z,12.69
2022-10-25T01:50:49.020Z,12.68
2022-10-25T01:53:52.885Z,12.66
2022-10-25T01:57:04.850Z,12.49
2022-10-25T02:00:10.777Z,12.29
2022-10-25T02:03:20.006Z,12.09
2022-10-25T02:06:28.761Z,11.88
2022-10-25T02:09:34.833Z,11.64
2022-10-25T02:12:44.381Z,11.51
2022-10-25T02:15:55.394Z,11.45
2022-10-25T02:19:00.977Z,11.33
2022-10-25T02:22:04.692Z,11.43
2022-10-25T02:25:08.947Z,11.33
2022-10-25T02:28:13.327Z,11.34
2022-10-25T02:31:18.993Z,11.36
2022-10-25T02:34:23.179Z,11.50
2022-10-25T02:37:25.893Z,11.52
2022-10-25T02:40:28.809Z,11.61
2022-10-25T02:43:31.385Z,11.71
2022-10-25T02:46:33.991Z,11.63
2022-10-25T02:49:38.342Z,11.58
2022-10-25T02:52:40.954Z,11.54
2022-10-25T02:55:44.519Z,11.59
2022-10-25T02:58:47.547Z,11.61
2022-10-25T03:01:50.222Z,11.51
2022-10-25T03:04:54.301Z,11.53
2022-10-25T03:07:56.928Z,11.43
2022-10-25T03:10:59.629Z,11.69
2022-10-25T03:14:02.317Z,11.71
2022-10-25T03:17:06.372Z,11.90
2022-10-25T03:20:11.657Z,11.97
2022-10-25T03:23:14.605Z,11.91
2022-10-25T03:26:17.704Z,11.98
2022-10-25T03:29:20.805Z,12.13
2022-10-25T03:32:23.464Z,12.13
2022-10-25T03:35:27.736Z,11.96
2022-10-25T03:38:30.409Z,11.95
2022-10-25T03:41:33.001Z,12.00
2022-10-25T03:44:36.097Z,12.00
2022-10-25T03:47:38.900Z,12.14
2022-10-25T03:50:43.228Z,12.11
2022-10-25T03:53:45.884Z,12.14
2022-10-25T03:56:48.559Z,12.17
2022-10-25T03:59:51.224Z,12.06
2022-10-25T04:02:59.421Z,12.11
2022-10-25T04:06:06.186Z,12.32
2022-10-25T04:09:08.903Z,12.40
2022-10-25T04:12:11.508Z,12.52
2022-10-25T04:15:14.773Z,12.36
2022-10-25T04:18:17.454Z,12.31
2022-10-25T04:21:21.547Z,12.54
2022-10-25T04:24:24.322Z,12.50
2022-10-25T04:27:27.330Z,12.19
2022-10-25T04:30:31.953Z,11.87
2022-10-25T04:33:36.425Z,11.67
2022-10-25T04:36:40.694Z,11.54
2022-10-25T04:39:43.378Z,11.49
2022-10-25T04:42:46.318Z,11.52
2022-10-25T04:45:49.430Z,11.50
2022-10-25T04:48:52.136Z,11.33
2022-10-25T04:51:56.564Z,11.40
2022-10-25T04:54:59.423Z,11.34
2022-10-25T04:58:02.136Z,11.39
2022-10-25T05:01:07.333Z,11.68
2022-10-25T05:04:10.154Z,11.71
2022-10-25T05:07:14.335Z,11.89
2022-10-25T05:10:17.142Z,11.84
2022-10-25T05:13:19.843Z,11.70
2022-10-25T05:16:24.906Z,11.52
2022-10-25T05:19:27.572Z,11.20
2022-10-25T05:22:32.248Z,11.06
2022-10-25T05:25:34.819Z,11.01
2022-10-25T05:28:38.838Z,10.97
2022-10-25T05:31:42.567Z,11.03
2022-10-25T05:34:45.315Z,10.97
2022-10-25T05:37:49.450Z,10.90
2022-10-25T05:40:55.856Z,10.88
2022-10-25T05:43:58.856Z,10.80
2022-10-25T05:47:01.757Z,10.78
2022-10-25T05:50:04.481Z,10.80
2022-10-25T05:53:08.642Z,10.82
2022-10-25T05:56:12.349Z,10.85
2022-10-25T05:59:18.699Z,10.79
2022-10-25T06:02:21.506Z,10.73
2022-10-25T06:05:24.244Z,10.83
2022-10-25T06:08:28.353Z,10.92
2022-10-25T06:11:31.633Z,11.27
2022-10-25T06:14:34.398Z,11.58
2022-10-25T06:17:37.150Z,11.93
2022-10-25T06:23:44.371Z,12.10
2022-10-25T06:26:47.139Z,12.28
2022-10-25T06:29:49.954Z,12.46
2022-10-25T06:32:52.564Z,12.57
2022-10-25T06:35:56.420Z,12.53
2022-10-25T06:39:05.809Z,12.48
2022-10-25T06:42:09.517Z,12.41
2022-10-25T06:45:12.304Z,12.38
2022-10-25T06:48:14.983Z,12.29
2022-10-25T06:51:17.749Z,12.26
2022-10-25T06:54:21.693Z,12.17
2022-10-25T06:57:24.482Z,12.14
2022-10-25T07:00:27.293Z,12.24
2022-10-25T07:03:34.952Z,12.51
2022-10-25T07:06:38.003Z,12.89
2022-10-25T07:09:42.103Z,13.12
2022-10-25T07:12:44.972Z,13.20
2022-10-25T07:15:47.862Z,13.28
2022-10-25T07:18:50.624Z,13.43
2022-10-25T07:21:53.241Z,13.53
2022-10-25T07:24:57.218Z,13.65
2022-10-25T07:27:59.797Z,13.69
2022-10-25T07:31:02.894Z,13.71
2022-10-25T07:34:06.582Z,13.64
2022-10-25T07:37:09.482Z,13.71
2022-10-25T07:40:14.166Z,13.75
2022-10-25T07:43:16.804Z,13.87
2022-10-25T07:46:19.589Z,14.03
2022-10-25T07:49:22.328Z,14.17
2022-10-25T07:52:25.275Z,14.21
2022-10-25T07:55:29.261Z,14.29
2022-10-25T07:58:32.045Z,14.48
2022-10-25T08:01:34.720Z,14.60
2022-10-25T08:04:37.433Z,14.70
2022-10-25T08:07:40.060Z,14.79
2022-10-25T08:10:44.974Z,14.92
2022-10-25T08:13:49.931Z,15.05
2022-10-25T08:16:52.560Z,15.11
2022-10-25T08:19:56.315Z,15.14
2022-10-25T08:22:59.166Z,15.24
2022-10-25T08:26:03.601Z,15.29
2022-10-25T08:29:06.303Z,15.26
2022-10-25T08:32:08.917Z,15.44
2022-10-25T08:35:11.504Z,15.47
2022-10-25T08:38:14.081Z,15.58
2022-10-25T08:41:20.362Z,15.78
2022-10-25T08:44:33.182Z,15.84
2022-10-25T08:47:38.204Z,16.03
2022-10-25T08:50:43.850Z,16.09
2022-10-25T08:53:48.916Z,16.15
2022-10-25T08:57:14.578Z,16.25
2022-10-25T09:00:21.041Z,16.35
2022-10-25T09:03:25.578Z,16.61
2022-10-25T09:06:35.913Z,16.56
2022-10-25T09:09:43.633Z,16.79
2022-10-25T09:12:53.577Z,16.89
2022-10-25T09:16:02.273Z,17.00
2022-10-25T09:19:09.686Z,17.02
2022-10-25T09:22:15.467Z,17.12
2022-10-25T09:25:22.885Z,17.17
2022-10-25T09:28:35.689Z,17.16
2022-10-25T09:31:40.757Z,17.01
2022-10-25T09:34:43.561Z,17.17
2022-10-25T09:37:50.018Z,17.31
2022-10-25T09:41:02.852Z,17.22
2022-10-25T09:44:12.298Z,17.38
2022-10-25T09:47:22.299Z,17.43
2022-10-25T09:50:27.482Z,17.43
2022-10-25T09:53:32.575Z,17.43
2022-10-25T09:56:35.195Z,17.54
2022-10-25T09:59:39.313Z,17.43
2022-10-25T10:02:42.509Z,17.48
2022-10-25T10:05:48.722Z,17.64
2022-10-25T10:08:52.949Z,17.70
2022-10-25T10:11:55.651Z,17.66
2022-10-25T10:15:02.615Z,17.79
2022-10-25T10:18:25.268Z,17.81
2022-10-25T10:21:28.057Z,17.97
2022-10-25T10:24:32.059Z,17.89
2022-10-25T10:27:35.247Z,17.86
2022-10-25T10:30:39.906Z,18.04
2022-10-25T10:33:42.598Z,18.02
2022-10-25T10:36:45.862Z,18.18
2022-10-25T10:39:52.781Z,18.19
2022-10-25T10:42:58.327Z,18.10
2022-10-25T10:46:09.827Z,18.28
2022-10-25T10:49:12.711Z,18.30
2022-10-25T10:52:29.151Z,18.60
2022-10-25T10:55:33.379Z,18.41
2022-10-25T10:58:38.876Z,18.59
2022-10-25T11:01:43.221Z,18.83
2022-10-25T11:04:49.939Z,19.07
2022-10-25T11:07:57.379Z,19.13
2022-10-25T11:11:14.335Z,18.98
2022-10-25T11:14:19.982Z,19.11
2022-10-25T11:17:27.145Z,19.27
2022-10-25T11:20:33.177Z,19.45
2022-10-25T11:23:39.630Z,19.28
2022-10-25T11:26:51.773Z,19.57
2022-10-25T11:30:03.768Z,19.52
2022-10-25T11:33:28.538Z,19.62
2022-10-25T11:36:51.591Z,19.71
2022-10-25T11:40:01.885Z,19.88
2022-10-25T11:43:17.319Z,19.96
2022-10-25T11:46:25.201Z,20.57
2022-10-25T11:49:36.897Z,21.18
2022-10-25T11:52:59.566Z,21.35
2022-10-25T11:56:08.399Z,22.20
2022-10-25T11:59:17.249Z,22.71
2022-10-25T12:02:42.528Z,21.97
2022-10-25T12:05:50.873Z,21.58
2022-10-25T12:09:03.411Z,21.61
2022-10-25T12:12:08.019Z,21.21
2022-10-25T12:15:15.441Z,21.38
2022-10-25T12:18:25.360Z,21.49
2022-10-25T12:21:36.757Z,21.99
2022-10-25T12:24:42.683Z,22.49
2022-10-25T12:27:49.521Z,22.47
2022-10-25T12:30:57.414Z,22.90
2022-10-25T12:34:06.610Z,23.72
2022-10-25T12:37:16.218Z,24.10
2022-10-25T12:40:21.717Z,23.66
2022-10-25T12:43:28.415Z,27.54
2022-10-25T12:46:52.666Z,34.10
2022-10-25T12:50:11.978Z,31.60
2022-10-25T12:53:50.298Z,33.14
2022-10-25T12:57:00.920Z,30.75
2022-10-25T13:00:11.464Z,29.69
2022-10-25T13:03:35.335Z,29.82
2022-10-25T13:06:39.167Z,32.57
2022-10-25T13:09:43.535Z,34.04
2022-10-25T13:13:00.076Z,29.71
2022-10-25T13:16:04.573Z,29.49
2022-10-25T13:19:42.781Z,35.24
2022-10-25T13:22:47.866Z,34.88
2022-10-25T13:26:08.212Z,27.66
2022-10-25T13:29:45.524Z,28.06
2022-10-25T13:33:28.978Z,25.14
2022-10-25T13:36:47.960Z,29.01
2022-10-25T13:39:54.189Z,34.42
2022-10-25T13:43:06.333Z,35.36
2022-10-25T13:46:11.266Z,35.42
2022-10-25T13:49:31.684Z,30.24
2022-10-25T13:52:35.216Z,26.57
2022-10-25T13:55:39.647Z,26.47
2022-10-25T13:58:46.946Z,33.64
2022-10-25T14:01:54.867Z,35.87
2022-10-25T14:04:57.616Z,35.05
2022-10-25T14:08:12.991Z,35.63
2022-10-25T14:11:19.329Z,36.01
2022-10-25T14:14:28.982Z,32.93
2022-10-25T14:17:35.356Z,29.08
2022-10-25T14:20:38.760Z,26.41
2022-10-25T14:23:41.872Z,24.84
2022-10-25T14:26:56.115Z,23.69
2022-10-25T14:30:25.538Z,22.90
2022-10-25T14:33:30.519Z,22.80
2022-10-25T14:36:34.154Z,22.71
2022-10-25T14:39:36.996Z,22.70
2022-10-25T14:42:39.675Z,22.43
2022-10-25T14:45:56.238Z,24.23
2022-10-25T14:49:00.087Z,24.95
2022-10-25T14:52:04.381Z,26.88
2022-10-25T14:55:08.111Z,29.32
2022-10-25T14:58:12.634Z,30.05
2022-10-25T15:01:20.398Z,31.84
2022-10-25T15:04:28.026Z,31.65
2022-10-25T15:07:32.380Z,32.52
2022-10-25T15:10:41.833Z,32.00
2022-10-25T15:13:45.662Z,30.21
2022-10-25T15:16:51.914Z,26.72
2022-10-25T15:20:06.895Z,24.43
2022-10-25T15:23:16.711Z,22.92
2022-10-25T15:26:24.585Z,21.69
2022-10-25T15:29:31.996Z,20.89
2022-10-25T15:32:37.083Z,20.27
2022-10-25T15:35:48.253Z,19.77
2022-10-25T15:39:07.897Z,19.42
2022-10-25T15:42:15.325Z,19.05
2022-10-25T15:45:18.587Z,18.78
2022-10-25T15:48:24.225Z,18.47
2022-10-25T15:51:30.178Z,18.25
2022-10-25T15:54:34.682Z,18.02
2022-10-25T15:57:37.297Z,17.71
2022-10-25T16:00:40.159Z,17.38
2022-10-25T16:03:44.323Z,17.13
2022-10-25T16:06:47.500Z,16.88
2022-10-25T16:09:50.187Z,16.66
2022-10-25T16:12:58.568Z,16.41
2022-10-25T16:16:11.852Z,16.18
2022-10-25T16:19:31.486Z,15.99
2022-10-25T16:22:34.341Z,15.83
2022-10-25T16:25:36.962Z,15.67
2022-10-25T16:28:40.932Z,15.59
2022-10-25T16:31:44.543Z,15.46
2022-10-25T16:34:48.627Z,15.34
2022-10-25T16:37:51.470Z,15.23
2022-10-25T16:40:54.202Z,15.15
2022-10-25T16:43:57.379Z,15.06
2022-10-25T16:47:00.212Z,14.92
2022-10-25T16:50:04.354Z,14.89
2022-10-25T16:53:09.150Z,14.79
2022-10-25T16:56:12.102Z,14.71
2022-10-25T16:59:14.857Z,14.66
2022-10-25T17:02:18.998Z,14.65
2022-10-25T17:05:24.819Z,14.65
2022-10-25T17:08:27.506Z,14.59
2022-10-25T17:11:30.233Z,14.52
2022-10-25T17:14:32.987Z,14.41
2022-10-25T17:17:36.004Z,14.33
2022-10-25T17:20:40.116Z,14.31
2022-10-25T17:23:43.140Z,14.26
2022-10-25T17:26:45.724Z,14.18
2022-10-25T17:29:48.754Z,14.15
2022-10-25T17:32:51.619Z,14.09
2022-10-25T17:35:56.021Z,14.00
2022-10-25T17:38:58.700Z,13.95
2022-10-25T17:42:01.610Z,13.93
2022-10-25T17:45:04.348Z,13.99
2022-10-25T17:48:07.365Z,13.93
2022-10-25T17:51:12.760Z,13.83
2022-10-25T17:54:16.678Z,13.77
2022-10-25T17:57:19.397Z,13.77
2022-10-25T18:00:22.165Z,13.70
2022-10-25T18:03:24.905Z,13.50
2022-10-25T18:06:29.158Z,13.42
2022-10-25T18:09:31.969Z,13.39
2022-10-25T18:12:34.686Z,13.48
2022-10-25T18:15:38.627Z,13.56
2022-10-25T18:18:41.571Z,13.56
2022-10-25T18:21:45.660Z,13.57
2022-10-25T18:24:48.569Z,13.52
2022-10-25T18:27:51.536Z,13.47
2022-10-25T18:30:59.748Z,13.44
2022-10-25T18:34:04.404Z,13.45
2022-10-25T18:37:08.528Z,13.50
2022-10-25T18:40:11.994Z,13.43
2022-10-25T18:43:14.872Z,13.52
2022-10-25T18:46:17.875Z,13.44
2022-10-25T18:49:20.689Z,13.37
2022-10-25T18:52:24.821Z,13.40
2022-10-25T18:55:28.331Z,13.48
2022-10-25T18:58:31.308Z,13.41
2022-10-25T19:01:34.075Z,13.29
2022-10-25T19:04:37.705Z,13.21
2022-10-25T19:07:41.568Z,13.09
2022-10-25T19:10:44.210Z,13.06
2022-10-25T19:13:50.366Z,13.07
2022-10-25T19:16:54.086Z,13.05
2022-10-25T19:19:56.845Z,12.95
2022-10-25T19:23:00.821Z,12.96
2022-10-25T19:26:04.307Z,12.95
2022-10-25T19:29:06.984Z,13.04
2022-10-25T19:32:09.633Z,13.07
2022-10-25T19:35:12.389Z,13.03
2022-10-25T19:38:16.373Z,13.09
2022-10-25T19:41:20.829Z,13.06
2022-10-25T19:44:24.255Z,12.99
2022-10-25T19:47:26.976Z,12.88
2022-10-25T19:50:30.745Z,12.85
2022-10-25T19:53:34.830Z,12.86
2022-10-25T19:56:39.123Z,12.96
2022-10-25T19:59:43.083Z,13.00
2022-10-25T20:02:45.880Z,12.95
2022-10-25T20:05:48.712Z,12.82
2022-10-25T20:08:53.052Z,12.65
2022-10-25T20:11:55.682Z,12.69
2022-10-25T20:14:58.884Z,12.70
2022-10-25T20:18:02.246Z,12.72
2022-10-25T20:21:07.371Z,12.81
2022-10-25T20:24:11.558Z,12.83
2022-10-25T20:27:14.215Z,12.93
2022-10-25T20:30:17.408Z,12.88
2022-10-25T20:33:20.467Z,12.95
2022-10-25T20:36:23.563Z,13.02
2022-10-25T20:39:27.580Z,13.05
2022-10-25T20:42:30.267Z,13.03
2022-10-25T20:45:33.138Z,12.95
2022-10-25T20:48:36.263Z,12.86
2022-10-25T20:51:39.213Z,12.81
2022-10-25T20:54:43.316Z,12.96
2022-10-25T20:57:46.433Z,13.02
2022-10-25T21:00:50.032Z,13.10
2022-10-25T21:03:54.025Z,13.05
2022-10-25T21:06:56.828Z,13.04
2022-10-25T21:10:00.941Z,13.01
2022-10-25T21:13:03.779Z,12.91
2022-10-25T21:16:07.531Z,12.84
2022-10-25T21:19:10.257Z,12.92
2022-10-25T21:22:12.972Z,12.94
2022-10-25T21:25:17.271Z,12.98
2022-10-25T21:28:19.906Z,13.13
2022-10-25T21:31:22.612Z,13.17
2022-10-25T21:34:25.249Z,13.13
2022-10-25T21:37:27.998Z,13.14
2022-10-25T21:40:31.992Z,13.13
2022-10-25T21:43:34.765Z,13.29
2022-10-25T21:46:37.511Z,13.32
2022-10-25T21:49:40.399Z,13.33
2022-10-25T21:52:43.041Z,13.36
2022-10-25T21:55:47.021Z,13.40
2022-10-25T21:58:50.937Z,13.50
2022-10-25T22:01:53.606Z,13.53
2022-10-25T22:04:56.398Z,13.57
2022-10-25T22:07:59.172Z,13.61
2022-10-25T22:11:05.018Z,13.62
2022-10-25T22:14:10.688Z,13.70
2022-10-25T22:17:13.812Z,13.81
2022-10-25T22:20:16.745Z,13.91
2022-10-25T22:23:19.457Z,13.95
2022-10-25T22:26:23.474Z,13.95
2022-10-25T22:29:26.378Z,14.00
2022-10-25T22:32:29.052Z,14.05
2022-10-25T22:35:31.830Z,14.00
2022-10-25T22:38:34.932Z,13.97
2022-10-25T22:41:39.062Z,13.95
2022-10-25T22:44:41.835Z,13.97
2022-10-25T22:47:44.852Z,13.98
2022-10-25T22:50:51.595Z,13.99
2022-10-25T22:53:54.599Z,13.94
2022-10-25T22:56:58.646Z,13.90
2022-10-25T23:00:01.230Z,13.89
2022-10-25T23:03:04.191Z,13.85
2022-10-25T23:06:08.770Z,13.79
2022-10-25T23:09:11.854Z,13.79
2022-10-25T23:12:15.989Z,13.71
2022-10-25T23:15:18.725Z,13.76
2022-10-25T23:18:21.391Z,13.74
2022-10-25T23:21:24.964Z,13.79
2022-10-25T23:24:27.435Z,13.92
2022-10-25T23:27:31.965Z,13.85
2022-10-25T23:30:36.012Z,13.79
2022-10-25T23:33:39.305Z,13.73
2022-10-25T23:36:42.035Z,13.67
2022-10-25T23:39:44.675Z,13.72
2022-10-25T23:42:48.651Z,13.73
2022-10-25T23:45:51.326Z,13.70
2022-10-25T23:48:54.020Z,13.66
2022-10-25T23:51:56.650Z,13.67
2022-10-25T23:54:59.302Z,13.67
2022-10-25T23:58:03.402Z,13.66
